createdAt,value
2022-08-26T00:02:19.337Z,101747.00
2022-08-26T00:04:51.058Z,101750.16
2022-08-26T00:07:21.262Z,101747.44
2022-08-26T00:09:50.119Z,101741.28
2022-08-26T00:12:35.767Z,101745.88
2022-08-26T00:15:11.364Z,101756.13
2022-08-26T00:17:42.945Z,101757.84
2022-08-26T00:20:17.315Z,101743.09
2022-08-26T00:22:47.498Z,101741.19
2022-08-26T00:25:18.656Z,101736.31
2022-08-26T00:27:48.506Z,101745.28
2022-08-26T00:30:22.913Z,101747.31
2022-08-26T00:32:53.191Z,101737.81
2022-08-26T00:35:24.901Z,101726.56
2022-08-26T00:37:57.610Z,101738.94
2022-08-26T00:40:33.512Z,101732.63
2022-08-26T00:43:09.549Z,101739.81
2022-08-26T00:45:47.935Z,101746.72
2022-08-26T00:48:23.716Z,101747.91
2022-08-26T00:51:01.990Z,101746.31
2022-08-26T00:53:39.154Z,101733.53
2022-08-26T00:56:20.153Z,101741.56
2022-08-26T00:58:52.187Z,101736.97
2022-08-26T01:01:23.087Z,101739.84
2022-08-26T01:03:53.271Z,101736.09
2022-08-26T01:06:26.540Z,101736.97
2022-08-26T01:08:56.070Z,101745.31
2022-08-26T01:11:26.571Z,101751.06
2022-08-26T01:14:00.660Z,101742.56
2022-08-26T01:16:33.599Z,101744.72
2022-08-26T01:19:11.572Z,101737.13
2022-08-26T01:21:50.831Z,101735.84
2022-08-26T01:24:21.891Z,101738.56
2022-08-26T01:26:52.564Z,101738.00
2022-08-26T01:29:22.438Z,101741.00
2022-08-26T01:31:55.978Z,101742.72
2022-08-26T01:34:28.463Z,101744.88
2022-08-26T01:37:06.879Z,101740.31
2022-08-26T01:39:38.985Z,101749.94
2022-08-26T01:42:14.295Z,101742.91
2022-08-26T01:44:47.340Z,101739.88
2022-08-26T01:47:20.806Z,101734.56
2022-08-26T01:49:54.171Z,101734.94
2022-08-26T01:52:28.390Z,101734.72
2022-08-26T01:55:00.973Z,101733.00
2022-08-26T01:57:31.202Z,101732.81
2022-08-26T02:00:05.217Z,101727.78
2022-08-26T02:02:41.169Z,101741.59
2022-08-26T02:05:26.124Z,101744.16
2022-08-26T02:07:56.748Z,101738.44
2022-08-26T02:10:26.692Z,101748.22
2022-08-26T02:12:57.273Z,101741.16
2022-08-26T02:15:29.024Z,101735.28
2022-08-26T02:18:04.151Z,101733.53
2022-08-26T02:20:34.074Z,101735.84
2022-08-26T02:23:04.316Z,101740.75
2022-08-26T02:25:45.115Z,101736.16
2022-08-26T02:28:15.382Z,101736.16
2022-08-26T02:30:44.440Z,101739.28
2022-08-26T02:33:13.614Z,101734.97
2022-08-26T02:35:42.359Z,101737.41
2022-08-26T02:38:11.990Z,101740.75
2022-08-26T02:40:44.104Z,101739.56
2022-08-26T02:43:13.926Z,101736.88
2022-08-26T02:45:46.251Z,101748.81
2022-08-26T02:48:21.286Z,101744.06
2022-08-26T02:50:51.104Z,101740.91
2022-08-26T02:53:25.085Z,101745.63
2022-08-26T02:55:55.720Z,101741.19
2022-08-26T02:58:24.719Z,101735.16
2022-08-26T03:00:53.837Z,101727.19
2022-08-26T03:03:26.984Z,101727.50
2022-08-26T03:05:59.857Z,101734.00
2022-08-26T03:08:28.477Z,101733.56
2022-08-26T03:10:59.232Z,101730.38
2022-08-26T03:13:30.586Z,101727.94
2022-08-26T03:16:02.441Z,101725.75
2022-08-26T03:18:32.022Z,101726.66
2022-08-26T03:21:05.489Z,101736.13
2022-08-26T03:23:37.325Z,101744.34
2022-08-26T03:26:10.961Z,101738.19
2022-08-26T03:29:02.233Z,101738.44
2022-08-26T03:31:30.254Z,101730.97
2022-08-26T03:34:02.081Z,101734.00
2022-08-26T03:36:33.438Z,101738.88
2022-08-26T03:39:07.321Z,101739.88
2022-08-26T03:41:41.394Z,101739.56
2022-08-26T03:44:10.577Z,101752.75
2022-08-26T03:46:42.726Z,101735.88
2022-08-26T03:49:15.266Z,101726.97
2022-08-26T03:51:44.280Z,101740.91
2022-08-26T03:54:22.583Z,101738.72
2022-08-26T03:56:52.944Z,101741.59
2022-08-26T03:59:22.099Z,101733.84
2022-08-26T04:01:51.894Z,101730.66
2022-08-26T04:04:22.876Z,101730.84
2022-08-26T04:06:59.164Z,101726.06
2022-08-26T04:09:29.070Z,101740.06
2022-08-26T04:11:59.896Z,101732.66
2022-08-26T04:14:32.928Z,101734.44
2022-08-26T04:17:04.946Z,101746.59
2022-08-26T04:19:34.824Z,101725.81
2022-08-26T04:22:04.644Z,101724.97
2022-08-26T04:24:33.337Z,101735.41
2022-08-26T04:27:06.749Z,101732.41
2022-08-26T04:29:37.205Z,101731.22
2022-08-26T04:32:08.795Z,101726.97
2022-08-26T04:34:48.181Z,101732.09
2022-08-26T04:37:18.083Z,101728.69
2022-08-26T04:39:53.002Z,101723.34
2022-08-26T04:42:27.239Z,101727.53
2022-08-26T04:44:56.750Z,101727.81
2022-08-26T04:47:29.195Z,101736.03
2022-08-26T04:50:01.927Z,101737.69
2022-08-26T04:52:32.818Z,101742.88
2022-08-26T04:55:01.691Z,101744.88
2022-08-26T04:57:32.029Z,101740.31
2022-08-26T05:00:00.938Z,101737.47
2022-08-26T05:02:31.681Z,101733.81
2022-08-26T05:05:01.680Z,101735.53
2022-08-26T05:07:31.496Z,101736.13
2022-08-26T05:10:00.790Z,101737.03
2022-08-26T05:12:31.826Z,101744.47
2022-08-26T05:15:01.029Z,101742.66
2022-08-26T05:17:31.144Z,101743.94
2022-08-26T05:20:00.510Z,101745.59
2022-08-26T05:22:29.804Z,101744.78
2022-08-26T05:25:00.478Z,101743.72
2022-08-26T05:27:29.637Z,101738.66
2022-08-26T05:30:01.557Z,101749.38
2022-08-26T05:32:31.848Z,101748.78
2022-08-26T05:35:05.092Z,101750.09
2022-08-26T05:37:39.359Z,101757.22
2022-08-26T05:40:11.061Z,101762.97
2022-08-26T05:42:40.989Z,101756.50
2022-08-26T05:45:14.010Z,101764.31
2022-08-26T05:47:48.864Z,101765.84
2022-08-26T05:50:23.241Z,101769.66
2022-08-26T05:52:55.400Z,101762.59
2022-08-26T05:55:25.618Z,101774.06
2022-08-26T05:57:55.167Z,101772.22
2022-08-26T06:00:26.475Z,101775.50
2022-08-26T06:05:41.101Z,101766.31
2022-08-26T06:08:14.235Z,101773.38
2022-08-26T06:10:52.673Z,101774.66
2022-08-26T06:13:31.859Z,101774.66
2022-08-26T06:24:51.921Z,101771.19
2022-08-26T06:27:20.555Z,101786.31
2022-08-26T06:29:50.411Z,101784.72
2022-08-26T06:32:21.463Z,101774.94
2022-08-26T06:34:51.319Z,101784.84
2022-08-26T06:37:21.663Z,101782.81
2022-08-26T06:39:51.354Z,101787.88
2022-08-26T06:42:19.772Z,101786.44
2022-08-26T06:44:49.823Z,101782.41
2022-08-26T06:47:19.704Z,101789.59
2022-08-26T06:49:48.327Z,101799.97
2022-08-26T06:52:23.089Z,101793.88
2022-08-26T06:54:54.426Z,101796.03
2022-08-26T06:57:23.404Z,101791.00
2022-08-26T06:59:52.660Z,101779.63
2022-08-26T07:02:24.349Z,101792.03
2022-08-26T07:04:57.524Z,101785.84
2022-08-26T07:07:26.319Z,101776.53
2022-08-26T07:09:56.955Z,101776.81
2022-08-26T07:12:26.040Z,101779.84
2022-08-26T07:14:55.301Z,101786.22
2022-08-26T07:17:31.604Z,101796.38
2022-08-26T07:20:07.257Z,101789.31
2022-08-26T07:22:37.288Z,101791.75
2022-08-26T07:25:08.266Z,101801.13
2022-08-26T07:27:39.863Z,101799.19
2022-08-26T07:30:14.924Z,101807.09
2022-08-26T07:32:46.870Z,101808.81
2022-08-26T07:35:16.267Z,101809.13
2022-08-26T07:37:46.045Z,101822.81
2022-08-26T07:40:16.324Z,101815.28
2022-08-26T07:42:45.576Z,101828.13
2022-08-26T07:45:14.609Z,101822.03
2022-08-26T07:47:45.589Z,101830.09
2022-08-26T07:50:14.116Z,101832.50
2022-08-26T07:52:44.542Z,101840.13
2022-08-26T07:55:13.991Z,101844.69
2022-08-26T07:57:43.189Z,101842.34
2022-08-26T08:00:18.409Z,101841.00
2022-08-26T08:02:49.384Z,101835.88
2022-08-26T08:05:22.993Z,101853.09
2022-08-26T08:08:27.593Z,101842.38
2022-08-26T08:10:52.811Z,101850.03
2022-08-26T08:13:21.795Z,101839.91
2022-08-26T08:15:50.945Z,101835.78
2022-08-26T08:18:23.637Z,101836.50
2022-08-26T08:21:04.659Z,101836.09
2022-08-26T08:23:34.350Z,101828.34
2022-08-26T08:26:07.272Z,101840.72
2022-08-26T08:28:37.149Z,101839.97
2022-08-26T08:31:07.265Z,101838.19
2022-08-26T08:33:37.321Z,101824.78
2022-08-26T08:36:09.273Z,101839.69
2022-08-26T08:38:38.681Z,101837.16
2022-08-26T08:41:07.773Z,101837.69
2022-08-26T08:43:45.747Z,101835.03
2022-08-26T08:46:19.830Z,101835.84
2022-08-26T08:48:59.092Z,101827.09
2022-08-26T08:51:40.620Z,101830.97
2022-08-26T08:54:17.248Z,101815.28
2022-08-26T08:56:54.737Z,101825.91
2022-08-26T08:59:28.899Z,101819.28
2022-08-26T09:02:08.323Z,101837.28
2022-08-26T09:08:06.569Z,101852.78
2022-08-26T09:10:39.740Z,101850.09
2022-08-26T09:13:16.311Z,101847.75
2022-08-26T09:16:01.929Z,101848.63
2022-08-26T09:18:48.555Z,101846.34
2022-08-26T09:21:20.219Z,101842.91
2022-08-26T09:23:55.344Z,101842.53
2022-08-26T09:26:30.646Z,101836.84
2022-08-26T09:29:02.074Z,101834.75
2022-08-26T09:31:32.785Z,101833.69
2022-08-26T09:34:17.294Z,101833.19
2022-08-26T09:36:48.966Z,101835.69
2022-08-26T09:39:34.548Z,101837.72
2022-08-26T09:42:11.126Z,101839.22
2022-08-26T09:44:59.370Z,101833.28
2022-08-26T09:47:31.788Z,101828.41
2022-08-26T09:50:09.647Z,101821.56
2022-08-26T09:52:42.820Z,101826.84
2022-08-26T09:55:21.419Z,101824.75
2022-08-26T09:57:53.974Z,101831.50
2022-08-26T10:00:32.972Z,101827.19
2022-08-26T10:03:03.922Z,101836.59
2022-08-26T10:05:42.304Z,101839.03
2022-08-26T10:08:30.501Z,101835.78
2022-08-26T10:11:05.006Z,101832.50
2022-08-26T10:13:40.950Z,101827.41
2022-08-26T10:16:17.711Z,101833.56
2022-08-26T10:18:59.483Z,101830.84
2022-08-26T10:21:34.870Z,101833.81
2022-08-26T10:24:05.409Z,101842.50
2022-08-26T10:26:43.754Z,101830.41
2022-08-26T10:29:19.963Z,101828.66
2022-08-26T10:31:55.038Z,101842.25
2022-08-26T10:34:27.326Z,101840.88
2022-08-26T10:37:14.614Z,101830.00
2022-08-26T10:39:56.840Z,101830.25
2022-08-26T10:42:35.163Z,101826.06
2022-08-26T10:45:11.928Z,101827.25
2022-08-26T10:47:51.415Z,101835.22
2022-08-26T10:50:21.458Z,101833.03
2022-08-26T10:53:01.958Z,101832.56
2022-08-26T10:55:37.227Z,101834.47
2022-08-26T10:58:39.684Z,101833.81
2022-08-26T11:01:33.158Z,101842.31
2022-08-26T11:04:15.059Z,101840.50
2022-08-26T11:06:45.902Z,101841.34
2022-08-26T11:09:46.155Z,101843.84
2022-08-26T11:13:06.852Z,101843.91
2022-08-26T11:16:09.243Z,101835.66
2022-08-26T11:18:46.699Z,101842.97
2022-08-26T11:22:02.118Z,101828.25
2022-08-26T11:25:16.040Z,101838.38
2022-08-26T11:27:57.505Z,101833.88
2022-08-26T11:30:45.946Z,101830.59
2022-08-26T11:34:00.084Z,101834.84
2022-08-26T11:36:43.859Z,101845.13
2022-08-26T11:39:25.325Z,101845.09
2022-08-26T11:42:02.914Z,101848.13
2022-08-26T11:44:49.670Z,101840.72
2022-08-26T11:47:29.667Z,101847.97
2022-08-26T11:50:15.265Z,101846.50
2022-08-26T11:52:52.355Z,101841.19
2022-08-26T11:55:23.384Z,101837.03
2022-08-26T11:57:57.947Z,101841.09
2022-08-26T12:00:33.390Z,101838.34
2022-08-26T12:03:09.217Z,101829.34
2022-08-26T12:05:45.432Z,101834.94
2022-08-26T12:08:18.393Z,101829.91
2022-08-26T12:10:46.599Z,101836.72
2022-08-26T12:13:26.305Z,101835.78
2022-08-26T12:15:57.271Z,101837.41
2022-08-26T12:18:30.160Z,101838.09
2022-08-26T12:21:02.162Z,101835.41
2022-08-26T12:23:44.473Z,101833.69
2022-08-26T12:26:22.461Z,101829.50
2022-08-26T12:28:57.999Z,101837.28
2022-08-26T12:31:31.486Z,101831.28
2022-08-26T12:34:04.203Z,101833.19
2022-08-26T12:36:37.958Z,101842.50
2022-08-26T12:39:11.932Z,101843.38
2022-08-26T12:41:47.996Z,101845.59
2022-08-26T12:44:53.756Z,101850.28
2022-08-26T12:47:35.207Z,101852.63
2022-08-26T12:50:19.142Z,101844.38
2022-08-26T12:53:00.087Z,101850.50
2022-08-26T12:55:39.754Z,101853.97
2022-08-26T12:58:25.468Z,101859.97
2022-08-26T13:00:56.016Z,101847.78
2022-08-26T13:03:46.430Z,101848.94
2022-08-26T13:06:35.956Z,101851.66
2022-08-26T13:09:26.614Z,101856.50
2022-08-26T13:12:02.133Z,101850.66
2022-08-26T13:14:31.106Z,101850.81
2022-08-26T13:17:00.995Z,101855.19
2022-08-26T13:19:31.982Z,101847.59
2022-08-26T13:22:02.484Z,101854.91
2022-08-26T13:24:35.455Z,101847.69
2022-08-26T13:27:05.888Z,101837.25
2022-08-26T13:29:34.133Z,101838.75
2022-08-26T13:32:06.426Z,101845.31
2022-08-26T13:34:36.382Z,101830.63
2022-08-26T13:37:04.714Z,101845.78
2022-08-26T13:39:33.777Z,101842.22
2022-08-26T13:42:02.102Z,101832.50
2022-08-26T13:44:30.695Z,101836.66
2022-08-26T13:46:59.770Z,101829.59
2022-08-26T13:49:29.718Z,101831.16
2022-08-26T13:51:58.015Z,101826.84
2022-08-26T13:54:26.522Z,101832.22
2022-08-26T13:56:54.833Z,101830.69
2022-08-26T13:59:23.187Z,101839.50
2022-08-26T14:01:51.589Z,101836.09
2022-08-26T14:04:26.989Z,101838.88
2022-08-26T14:06:57.357Z,101834.69
2022-08-26T14:09:25.734Z,101832.97
2022-08-26T14:11:55.041Z,101836.88
2022-08-26T14:14:25.087Z,101831.25
2022-08-26T14:16:59.410Z,101830.91
2022-08-26T14:19:29.983Z,101829.13
2022-08-26T14:22:01.671Z,101828.91
2022-08-26T14:24:30.537Z,101838.13
2022-08-26T14:26:59.449Z,101840.00
2022-08-26T14:29:28.285Z,101837.50
2022-08-26T14:31:59.602Z,101827.41
2022-08-26T14:34:28.251Z,101840.81
2022-08-26T14:36:56.838Z,101837.22
2022-08-26T14:39:26.999Z,101833.16
2022-08-26T14:41:57.603Z,101832.28
2022-08-26T14:44:29.470Z,101836.56
2022-08-26T14:47:01.031Z,101838.19
2022-08-26T14:49:32.405Z,101836.47
2022-08-26T14:52:00.654Z,101834.25
2022-08-26T14:54:29.678Z,101822.78
2022-08-26T14:57:04.991Z,101836.03
2022-08-26T14:59:34.803Z,101835.19
2022-08-26T15:02:06.416Z,101840.94
2022-08-26T15:04:35.749Z,101831.31
2022-08-26T15:07:05.645Z,101839.66
2022-08-26T15:09:45.541Z,101831.84
2022-08-26T15:12:19.820Z,101831.50
2022-08-26T15:14:48.316Z,101831.28
2022-08-26T15:17:16.714Z,101825.34
2022-08-26T15:19:45.129Z,101835.59
2022-08-26T15:22:13.494Z,101829.13
2022-08-26T15:24:43.251Z,101832.03
2022-08-26T15:27:12.355Z,101836.66
2022-08-26T15:29:40.706Z,101827.41
2022-08-26T15:32:09.365Z,101832.19
2022-08-26T15:34:37.830Z,101830.75
2022-08-26T15:37:06.787Z,101824.16
2022-08-26T15:39:35.922Z,101818.63
2022-08-26T15:42:06.225Z,101819.34
2022-08-26T15:44:36.651Z,101823.16
2022-08-26T15:47:05.289Z,101813.44
2022-08-26T15:49:33.539Z,101809.03
2022-08-26T15:52:05.171Z,101818.16
2022-08-26T15:54:34.440Z,101802.31
2022-08-26T15:57:04.680Z,101811.06
2022-08-26T15:59:35.937Z,101811.50
2022-08-26T16:02:05.673Z,101804.91
2022-08-26T16:04:33.872Z,101805.13
2022-08-26T16:07:02.062Z,101801.47
2022-08-26T16:09:30.689Z,101795.16
2022-08-26T16:11:59.399Z,101804.66
2022-08-26T16:14:28.256Z,101807.88
2022-08-26T16:16:58.067Z,101800.53
2022-08-26T16:19:26.202Z,101796.81
2022-08-26T16:21:54.322Z,101797.88
2022-08-26T16:24:28.420Z,101800.44
2022-08-26T16:26:58.458Z,101794.56
2022-08-26T16:29:26.570Z,101793.00
2022-08-26T16:31:55.009Z,101792.09
2022-08-26T16:34:24.639Z,101792.56
2022-08-26T16:36:53.427Z,101805.78
2022-08-26T16:39:21.744Z,101791.06
2022-08-26T16:41:50.412Z,101787.84
2022-08-26T16:44:19.463Z,101798.94
2022-08-26T16:46:48.017Z,101800.34
2022-08-26T16:49:16.463Z,101794.72
2022-08-26T16:51:46.762Z,101804.09
2022-08-26T16:54:15.008Z,101797.50
2022-08-26T16:56:43.579Z,101807.84
2022-08-26T16:59:12.226Z,101810.69
2022-08-26T17:01:41.933Z,101808.09
2022-08-26T17:04:10.294Z,101817.06
2022-08-26T17:06:38.656Z,101814.97
2022-08-26T17:09:09.414Z,101822.41
2022-08-26T17:11:37.553Z,101817.69
2022-08-26T17:14:06.439Z,101816.59
2022-08-26T17:16:34.690Z,101820.91
2022-08-26T17:19:04.428Z,101819.91
2022-08-26T17:21:34.287Z,101823.59
2022-08-26T17:24:02.809Z,101818.13
2022-08-26T17:26:32.612Z,101828.28
2022-08-26T17:29:00.964Z,101826.63
2022-08-26T17:31:29.082Z,101830.22
2022-08-26T17:33:57.547Z,101830.06
2022-08-26T17:36:27.638Z,101835.88
2022-08-26T17:38:57.638Z,101838.72
2022-08-26T17:41:26.519Z,101835.47
2022-08-26T17:43:56.136Z,101839.91
2022-08-26T17:46:25.486Z,101841.19
2022-08-26T17:48:53.731Z,101841.91
2022-08-26T17:51:23.391Z,101841.91
2022-08-26T17:53:52.946Z,101845.09
2022-08-26T17:56:25.388Z,101842.78
2022-08-26T17:58:57.585Z,101843.75
2022-08-26T18:01:30.797Z,101846.09
2022-08-26T18:04:00.604Z,101848.94
2022-08-26T18:06:31.266Z,101849.09
2022-08-26T18:09:00.924Z,101854.00
2022-08-26T18:11:31.145Z,101856.88
2022-08-26T18:14:01.640Z,101849.63
2022-08-26T18:16:33.600Z,101857.88
2022-08-26T18:19:01.856Z,101850.72
2022-08-26T18:21:30.072Z,101854.56
2022-08-26T18:23:58.430Z,101854.97
2022-08-26T18:26:30.072Z,101861.28
2022-08-26T18:29:00.373Z,101862.59
2022-08-26T18:31:29.441Z,101868.31
2022-08-26T18:33:58.019Z,101864.88
2022-08-26T18:36:29.762Z,101871.25
2022-08-26T18:38:58.638Z,101870.59
2022-08-26T18:41:30.019Z,101871.06
2022-08-26T18:43:58.766Z,101866.63
2022-08-26T18:46:29.220Z,101880.59
2022-08-26T18:48:58.435Z,101880.59
2022-08-26T18:51:30.608Z,101877.91
2022-08-26T18:53:59.985Z,101880.22
2022-08-26T18:56:29.040Z,101869.06
2022-08-26T18:58:58.276Z,101877.03
2022-08-26T19:01:29.446Z,101879.22
2022-08-26T19:03:59.424Z,101888.34
2022-08-26T19:06:32.678Z,101891.41
2022-08-26T19:09:01.806Z,101886.44
2022-08-26T19:11:32.371Z,101893.31
2022-08-26T19:14:07.105Z,101902.56
2022-08-26T19:16:38.679Z,101895.38
2022-08-26T19:19:07.579Z,101897.53
2022-08-26T19:21:38.209Z,101899.13
2022-08-26T19:24:15.583Z,101892.28
2022-08-26T19:26:45.542Z,101896.25
2022-08-26T19:29:15.410Z,101903.66
2022-08-26T19:31:45.340Z,101901.97
2022-08-26T19:34:17.476Z,101904.69
2022-08-26T19:36:49.249Z,101898.03
2022-08-26T19:39:17.730Z,101914.09
2022-08-26T19:41:46.245Z,101908.28
2022-08-26T19:44:37.812Z,101904.28
2022-08-26T19:47:09.720Z,101901.09
2022-08-26T19:49:38.932Z,101903.19
2022-08-26T19:52:08.998Z,101901.81
2022-08-26T19:54:37.236Z,101900.22
2022-08-26T19:57:06.328Z,101895.88
2022-08-26T19:59:36.168Z,101905.91
2022-08-26T20:02:10.511Z,101908.28
2022-08-26T20:04:39.306Z,101909.88
2022-08-26T20:07:07.782Z,101902.69
2022-08-26T20:09:38.312Z,101910.88
2022-08-26T20:12:08.465Z,101912.34
2022-08-26T20:14:37.325Z,101911.25
2022-08-26T20:17:07.532Z,101910.63
2022-08-26T20:19:53.976Z,101909.38
2022-08-26T20:22:23.176Z,101903.09
2022-08-26T20:24:51.670Z,101907.78
2022-08-26T20:27:22.148Z,101913.22
2022-08-26T20:29:50.512Z,101902.41
2022-08-26T20:32:21.615Z,101901.84
2022-08-26T20:34:51.493Z,101902.72
2022-08-26T20:37:21.664Z,101901.47
2022-08-26T20:39:50.491Z,101905.56
2022-08-26T20:42:20.128Z,101899.53
2022-08-26T20:44:54.426Z,101895.19
2022-08-26T20:47:24.850Z,101884.56
2022-08-26T20:49:54.028Z,101890.84
2022-08-26T20:52:22.451Z,101897.03
2022-08-26T20:54:50.822Z,101896.41
2022-08-26T20:57:19.135Z,101898.50
2022-08-26T20:59:47.528Z,101898.03
2022-08-26T21:02:15.857Z,101898.38
2022-08-26T21:04:45.633Z,101915.34
2022-08-26T21:07:13.955Z,101906.66
2022-08-26T21:09:42.384Z,101904.84
2022-08-26T21:12:11.974Z,101910.28
2022-08-26T21:14:40.301Z,101907.88
2022-08-26T21:17:08.565Z,101907.59
2022-08-26T21:19:37.433Z,101910.06
2022-08-26T21:22:07.453Z,101901.28
2022-08-26T21:24:35.909Z,101904.88
2022-08-26T21:27:07.017Z,101905.91
2022-08-26T21:29:35.231Z,101908.09
2022-08-26T21:32:04.075Z,101912.19
2022-08-26T21:34:32.521Z,101905.34
2022-08-26T21:37:00.875Z,101901.03
2022-08-26T21:39:30.534Z,101906.06
2022-08-26T21:41:59.304Z,101897.19
2022-08-26T21:44:28.603Z,101888.91
2022-08-26T21:46:56.856Z,101905.50
2022-08-26T21:49:25.219Z,101901.66
2022-08-26T21:51:55.171Z,101896.56
2022-08-26T21:54:24.195Z,101906.34
2022-08-26T21:56:54.472Z,101902.00
2022-08-26T21:59:22.820Z,101904.88
2022-08-26T22:01:52.183Z,101905.38
2022-08-26T22:04:20.513Z,101910.84
2022-08-26T22:06:52.727Z,101909.06
2022-08-26T22:09:25.124Z,101909.56
2022-08-26T22:11:56.835Z,101903.75
2022-08-26T22:14:30.457Z,101917.22
2022-08-26T22:17:00.511Z,101918.47
2022-08-26T22:19:29.801Z,101907.94
2022-08-26T22:21:58.908Z,101912.28
2022-08-26T22:24:28.606Z,101915.75
2022-08-26T22:26:58.891Z,101911.34
2022-08-26T22:29:27.621Z,101911.41
2022-08-26T22:31:57.214Z,101917.34
2022-08-26T22:34:25.580Z,101913.94
2022-08-26T22:36:54.018Z,101913.53
2022-08-26T22:39:26.027Z,101914.25
2022-08-26T22:41:56.741Z,101915.00
2022-08-26T22:44:26.570Z,101908.81
2022-08-26T22:46:56.005Z,101904.72
2022-08-26T22:49:25.069Z,101909.06
2022-08-26T22:51:53.821Z,101901.25
2022-08-26T22:54:22.118Z,101916.34
2022-08-26T22:56:50.433Z,101902.84
2022-08-26T22:59:18.723Z,101908.03
2022-08-26T23:01:48.662Z,101906.56
2022-08-26T23:04:17.021Z,101908.66
2022-08-26T23:06:47.495Z,101906.31
2022-08-26T23:09:18.101Z,101911.56
2022-08-26T23:11:48.492Z,101911.69
2022-08-26T23:14:18.895Z,101906.13
2022-08-26T23:16:48.778Z,101897.78
2022-08-26T23:19:22.686Z,101905.03
2022-08-26T23:21:51.822Z,101903.94
2022-08-26T23:24:20.093Z,101904.53
2022-08-26T23:26:48.801Z,101893.16
2022-08-26T23:29:18.390Z,101900.50
2022-08-26T23:31:48.320Z,101900.84
2022-08-26T23:34:34.077Z,101896.41
2022-08-26T23:37:02.438Z,101898.25
2022-08-26T23:39:35.265Z,101893.81
2022-08-26T23:42:03.956Z,101895.16
2022-08-26T23:44:32.827Z,101892.06
2022-08-26T23:47:04.797Z,101891.56
2022-08-26T23:49:34.081Z,101895.38
2022-08-26T23:52:19.940Z,101897.16
2022-08-26T23:54:49.701Z,101884.53
2022-08-26T23:57:20.196Z,101892.09
2022-08-26T23:59:49.643Z,101892.09
